createdAt,value
2022-10-09T00:01:11.259Z,100.00
2022-10-09T00:04:05.868Z,100.00
2022-10-09T00:06:54.393Z,100.00
2022-10-09T00:09:39.966Z,100.00
2022-10-09T00:12:25.557Z,100.00
2022-10-09T00:15:12.890Z,100.00
2022-10-09T00:17:58.741Z,100.00
2022-10-09T00:20:46.234Z,100.00
2022-10-09T00:23:32.595Z,100.00
2022-10-09T00:26:18.765Z,100.00
2022-10-09T00:29:04.684Z,100.00
2022-10-09T00:31:51.292Z,100.00
2022-10-09T00:34:36.913Z,100.00
2022-10-09T00:37:22.393Z,100.00
2022-10-09T00:40:08.315Z,100.00
2022-10-09T00:42:58.277Z,100.00
2022-10-09T00:45:56.552Z,100.00
2022-10-09T00:48:42.748Z,100.00
2022-10-09T00:51:30.474Z,100.00
2022-10-09T00:54:20.517Z,100.00
2022-10-09T00:57:08.091Z,100.00
2022-10-09T00:59:54.330Z,100.00
2022-10-09T01:02:40.708Z,100.00
2022-10-09T01:05:53.206Z,100.00
2022-10-09T01:09:00.998Z,100.00
2022-10-09T01:12:04.499Z,100.00
2022-10-09T01:14:59.258Z,100.00
2022-10-09T01:17:56.840Z,100.00
2022-10-09T01:20:54.647Z,100.00
2022-10-09T01:24:03.255Z,100.00
2022-10-09T01:26:57.855Z,100.00
2022-10-09T01:29:48.143Z,100.00
2022-10-09T01:32:37.518Z,100.00
2022-10-09T01:35:24.259Z,100.00
2022-10-09T01:38:10.083Z,100.00
2022-10-09T01:40:56.945Z,100.00
2022-10-09T01:43:43.002Z,100.00
2022-10-09T01:46:33.282Z,100.00
2022-10-09T01:49:27.884Z,100.00
2022-10-09T01:52:40.965Z,100.00
2022-10-09T01:55:53.795Z,100.00
2022-10-09T01:58:45.882Z,100.00
2022-10-09T02:01:35.910Z,100.00
2022-10-09T02:04:24.413Z,100.00
2022-10-09T02:07:10.686Z,100.00
2022-10-09T02:09:57.717Z,100.00
2022-10-09T02:12:50.205Z,100.00
2022-10-09T02:16:03.803Z,100.00
2022-10-09T02:18:59.826Z,100.00
2022-10-09T02:21:54.512Z,100.00
2022-10-09T02:24:41.765Z,100.00
2022-10-09T02:27:30.450Z,100.00
2022-10-09T02:30:17.833Z,100.00
2022-10-09T02:33:05.605Z,100.00
2022-10-09T02:35:51.358Z,100.00
2022-10-09T02:38:37.236Z,100.00
2022-10-09T02:41:23.564Z,100.00
2022-10-09T02:44:10.025Z,100.00
2022-10-09T02:46:55.967Z,100.00
2022-10-09T02:49:41.465Z,100.00
2022-10-09T02:52:27.788Z,100.00
2022-10-09T02:55:13.391Z,100.00
2022-10-09T02:57:58.858Z,100.00
2022-10-09T03:00:52.512Z,100.00
2022-10-09T03:03:39.449Z,100.00
2022-10-09T03:06:26.598Z,100.00
2022-10-09T03:09:13.259Z,100.00
2022-10-09T03:11:59.163Z,100.00
2022-10-09T03:14:46.081Z,100.00
2022-10-09T03:17:32.007Z,100.00
2022-10-09T03:20:18.835Z,100.00
2022-10-09T03:23:05.810Z,100.00
2022-10-09T03:25:59.985Z,100.00
2022-10-09T03:28:48.758Z,100.00
2022-10-09T03:31:52.830Z,100.00
2022-10-09T03:34:39.049Z,100.00
2022-10-09T03:37:25.353Z,100.00
2022-10-09T03:40:11.066Z,100.00
2022-10-09T03:42:56.478Z,100.00
2022-10-09T03:45:44.062Z,100.00
2022-10-09T03:48:30.128Z,100.00
2022-10-09T03:51:16.908Z,100.00
2022-10-09T03:54:02.678Z,100.00
2022-10-09T03:56:48.161Z,100.00
2022-10-09T03:59:35.638Z,100.00
2022-10-09T04:02:21.576Z,100.00
2022-10-09T04:05:08.438Z,100.00
2022-10-09T04:07:55.173Z,100.00
2022-10-09T04:10:40.794Z,100.00
2022-10-09T04:13:26.807Z,100.00
2022-10-09T04:16:13.168Z,100.00
2022-10-09T04:19:00.017Z,100.00
2022-10-09T04:21:45.907Z,100.00
2022-10-09T04:24:31.849Z,100.00
2022-10-09T04:27:18.756Z,100.00
2022-10-09T04:30:05.564Z,100.00
2022-10-09T04:32:51.883Z,100.00
2022-10-09T04:35:43.408Z,100.00
2022-10-09T04:38:31.369Z,100.00
2022-10-09T04:41:16.936Z,100.00
2022-10-09T04:44:04.220Z,100.00
2022-10-09T04:46:52.123Z,100.00
2022-10-09T04:49:38.038Z,100.00
2022-10-09T04:52:23.950Z,100.00
2022-10-09T04:55:09.448Z,100.00
2022-10-09T04:57:56.775Z,100.00
2022-10-09T05:00:44.252Z,100.00
2022-10-09T05:03:31.326Z,100.00
2022-10-09T05:06:17.982Z,100.00
2022-10-09T05:09:05.420Z,100.00
2022-10-09T05:11:51.326Z,100.00
2022-10-09T05:14:36.834Z,100.00
2022-10-09T05:17:23.868Z,100.00
2022-10-09T05:20:10.056Z,100.00
2022-10-09T05:22:56.822Z,100.00
2022-10-09T05:25:42.876Z,100.00
2022-10-09T05:28:28.889Z,100.00
2022-10-09T05:31:26.747Z,100.00
2022-10-09T05:34:12.520Z,100.00
2022-10-09T05:36:58.074Z,100.00
2022-10-09T05:39:44.428Z,100.00
2022-10-09T05:42:30.268Z,100.00
2022-10-09T05:45:15.745Z,100.00
2022-10-09T05:48:02.170Z,100.00
2022-10-09T05:50:48.331Z,100.00
2022-10-09T05:53:35.011Z,100.00
2022-10-09T05:56:26.778Z,100.00
2022-10-09T05:59:16.553Z,100.00
2022-10-09T06:02:02.217Z,100.00
2022-10-09T06:04:48.553Z,100.00
2022-10-09T06:07:35.874Z,100.00
2022-10-09T06:10:21.688Z,100.00
2022-10-09T06:13:07.301Z,100.00
2022-10-09T06:15:56.141Z,100.00
2022-10-09T06:18:48.120Z,100.00
2022-10-09T06:21:34.933Z,100.00
2022-10-09T06:24:28.838Z,100.00
2022-10-09T06:27:15.323Z,100.00
2022-10-09T06:30:01.002Z,100.00
2022-10-09T06:32:47.406Z,100.00
2022-10-09T06:35:35.825Z,100.00
2022-10-09T06:38:22.485Z,100.00
2022-10-09T06:41:15.480Z,100.00
2022-10-09T06:44:05.334Z,100.00
2022-10-09T06:46:51.523Z,100.00
2022-10-09T06:49:37.821Z,100.00
2022-10-09T06:52:23.337Z,100.00
2022-10-09T06:55:09.123Z,100.00
2022-10-09T06:57:54.939Z,100.00
2022-10-09T07:00:40.867Z,100.00
2022-10-09T07:03:26.752Z,100.00
2022-10-09T07:06:20.817Z,100.00
2022-10-09T07:09:09.898Z,98.14
2022-10-09T07:11:55.475Z,94.21
2022-10-09T07:14:40.756Z,93.38
2022-10-09T07:17:27.127Z,89.16
2022-10-09T07:20:14.215Z,86.39
2022-10-09T07:22:59.700Z,83.79
2022-10-09T07:25:45.187Z,83.99
2022-10-09T07:28:31.931Z,80.19
2022-10-09T07:31:23.935Z,79.50
2022-10-09T07:38:25.046Z,75.09
2022-10-09T07:41:12.473Z,71.77
2022-10-09T07:43:59.205Z,69.31
2022-10-09T07:46:48.459Z,69.84
2022-10-09T07:49:33.844Z,66.17
2022-10-09T07:52:19.471Z,65.23
2022-10-09T07:55:05.348Z,62.65
2022-10-09T07:57:51.411Z,66.04
2022-10-09T08:00:37.920Z,64.73
2022-10-09T08:03:23.850Z,62.87
2022-10-09T08:06:09.743Z,59.89
2022-10-09T08:08:58.321Z,60.76
2022-10-09T08:11:45.570Z,59.17
2022-10-09T08:14:31.510Z,57.46
2022-10-09T08:17:18.554Z,59.76
2022-10-09T08:20:05.236Z,61.60
2022-10-09T08:22:51.682Z,56.54
2022-10-09T08:25:39.056Z,57.02
2022-10-09T08:28:25.083Z,56.01
2022-10-09T08:31:16.603Z,51.04
2022-10-09T08:34:03.858Z,50.30
2022-10-09T08:36:49.676Z,48.94
2022-10-09T08:39:35.885Z,50.48
2022-10-09T08:42:37.486Z,49.01
2022-10-09T08:45:23.505Z,48.57
2022-10-09T08:48:19.040Z,48.09
2022-10-09T08:51:09.262Z,49.65
2022-10-09T08:54:01.523Z,49.31
2022-10-09T08:56:50.839Z,46.60
2022-10-09T08:59:36.570Z,45.39
2022-10-09T09:02:43.758Z,48.53
2022-10-09T09:05:40.001Z,47.07
2022-10-09T09:08:28.044Z,47.24
2022-10-09T09:11:21.796Z,46.81
2022-10-09T09:14:45.118Z,45.81
2022-10-09T09:17:54.186Z,42.64
2022-10-09T09:20:51.027Z,43.29
2022-10-09T09:23:42.447Z,45.45
2022-10-09T09:26:28.729Z,44.80
2022-10-09T09:29:17.480Z,45.06
2022-10-09T09:32:17.448Z,44.75
2022-10-09T09:35:25.388Z,43.00
2022-10-09T09:38:10.835Z,43.34
2022-10-09T09:40:56.502Z,44.01
2022-10-09T09:43:42.896Z,42.73
2022-10-09T09:46:30.466Z,43.85
2022-10-09T09:49:23.617Z,44.41
2022-10-09T09:52:09.383Z,43.47
2022-10-09T09:54:57.368Z,46.08
2022-10-09T09:57:47.854Z,43.54
2022-10-09T10:00:34.936Z,42.98
2022-10-09T10:03:21.269Z,40.47
2022-10-09T10:06:21.781Z,40.24
2022-10-09T10:09:17.542Z,40.75
2022-10-09T10:12:06.155Z,40.84
2022-10-09T10:14:51.597Z,41.39
2022-10-09T10:17:37.642Z,41.10
2022-10-09T10:20:23.793Z,40.61
2022-10-09T10:23:30.038Z,40.25
2022-10-09T10:26:37.459Z,38.51
2022-10-09T10:29:42.669Z,38.84
2022-10-09T10:32:53.307Z,41.30
2022-10-09T10:35:44.364Z,40.29
2022-10-09T10:38:42.710Z,37.82
2022-10-09T10:41:33.589Z,36.57
2022-10-09T10:44:29.079Z,34.87
2022-10-09T10:47:26.655Z,37.53
2022-10-09T10:50:18.201Z,38.80
2022-10-09T10:53:14.895Z,39.75
2022-10-09T10:56:07.300Z,43.84
2022-10-09T10:59:13.324Z,39.87
2022-10-09T11:02:45.562Z,37.94
2022-10-09T11:05:49.073Z,35.56
2022-10-09T11:08:45.972Z,35.58
2022-10-09T11:11:42.914Z,36.76
2022-10-09T11:14:41.179Z,37.15
2022-10-09T11:17:51.866Z,36.72
2022-10-09T11:20:54.421Z,34.10
2022-10-09T11:24:04.160Z,34.90
2022-10-09T11:27:06.704Z,35.98
2022-10-09T11:30:02.290Z,39.88
2022-10-09T11:32:59.030Z,39.13
2022-10-09T11:35:48.386Z,34.90
2022-10-09T11:38:38.167Z,33.90
2022-10-09T11:41:25.880Z,32.56
2022-10-09T11:44:38.387Z,38.11
2022-10-09T11:47:42.591Z,42.50
2022-10-09T11:51:00.678Z,42.61
2022-10-09T11:53:48.358Z,46.35
2022-10-09T11:56:34.891Z,46.33
2022-10-09T11:59:31.094Z,47.41
2022-10-09T12:02:30.702Z,39.89
2022-10-09T12:05:18.695Z,35.96
2022-10-09T12:08:30.235Z,32.00
2022-10-09T12:11:18.572Z,34.12
2022-10-09T12:14:11.249Z,31.88
2022-10-09T12:16:57.357Z,31.50
2022-10-09T12:19:46.423Z,32.40
2022-10-09T12:22:39.821Z,32.22
2022-10-09T12:25:32.408Z,32.88
2022-10-09T12:28:23.956Z,35.04
2022-10-09T12:31:31.876Z,33.08
2022-10-09T12:34:34.127Z,32.21
2022-10-09T12:37:22.969Z,33.74
2022-10-09T12:40:15.272Z,34.63
2022-10-09T12:43:12.190Z,34.63
2022-10-09T12:45:58.286Z,33.22
2022-10-09T12:48:45.770Z,33.55
2022-10-09T12:51:33.367Z,35.86
2022-10-09T12:54:19.428Z,37.54
2022-10-09T12:57:14.417Z,34.87
2022-10-09T13:00:08.135Z,34.20
2022-10-09T13:02:54.537Z,33.16
2022-10-09T13:05:42.582Z,31.49
2022-10-09T13:08:31.836Z,32.81
2022-10-09T13:11:41.137Z,33.11
2022-10-09T13:14:35.606Z,32.62
2022-10-09T13:17:35.573Z,31.70
2022-10-09T13:20:27.105Z,31.23
2022-10-09T13:23:30.585Z,31.46
2022-10-09T13:26:28.510Z,31.88
2022-10-09T13:29:14.881Z,31.39
2022-10-09T13:32:00.314Z,30.29
2022-10-09T13:34:46.839Z,32.15
2022-10-09T13:37:32.607Z,30.87
2022-10-09T13:40:20.741Z,31.33
2022-10-09T13:43:06.202Z,31.96
2022-10-09T13:45:52.015Z,33.83
2022-10-09T13:48:37.992Z,33.90
2022-10-09T13:51:24.699Z,33.10
2022-10-09T13:54:10.515Z,31.95
2022-10-09T13:56:56.099Z,32.47
2022-10-09T13:59:42.338Z,33.49
2022-10-09T14:02:28.084Z,34.24
2022-10-09T14:05:13.707Z,34.98
2022-10-09T14:08:01.448Z,33.65
2022-10-09T14:10:46.973Z,33.84
2022-10-09T14:13:32.831Z,36.13
2022-10-09T14:16:18.609Z,35.33
2022-10-09T14:19:05.610Z,34.08
2022-10-09T14:21:51.720Z,34.79
2022-10-09T14:24:38.123Z,34.53
2022-10-09T14:27:23.741Z,35.59
2022-10-09T14:30:10.282Z,35.72
2022-10-09T14:32:56.055Z,36.49
2022-10-09T14:35:42.038Z,35.36
2022-10-09T14:38:27.593Z,35.99
2022-10-09T14:41:14.444Z,36.89
2022-10-09T14:44:00.867Z,36.50
2022-10-09T14:46:46.887Z,36.03
2022-10-09T14:49:32.545Z,36.80
2022-10-09T14:52:18.751Z,38.04
2022-10-09T14:55:13.610Z,38.29
2022-10-09T14:58:00.539Z,38.69
2022-10-09T15:00:47.578Z,38.89
2022-10-09T15:03:35.057Z,38.26
2022-10-09T15:06:24.043Z,39.36
2022-10-09T15:09:17.278Z,44.24
2022-10-09T15:12:02.906Z,47.48
2022-10-09T15:14:48.372Z,50.80
2022-10-09T15:17:34.515Z,52.08
2022-10-09T15:20:19.854Z,53.69
2022-10-09T15:23:06.352Z,55.07
2022-10-09T15:25:59.367Z,56.25
2022-10-09T15:28:47.491Z,56.78
2022-10-09T15:31:42.292Z,57.31
2022-10-09T15:34:28.791Z,58.83
2022-10-09T15:37:14.335Z,58.57
2022-10-09T15:40:03.009Z,59.47
2022-10-09T15:42:48.872Z,59.91
2022-10-09T15:45:35.217Z,61.21
2022-10-09T15:48:24.119Z,62.10
2022-10-09T15:51:13.644Z,63.07
2022-10-09T15:54:01.367Z,64.59
2022-10-09T15:56:47.562Z,66.36
2022-10-09T15:59:36.236Z,68.42
2022-10-09T16:02:21.775Z,68.18
2022-10-09T16:05:10.173Z,69.37
2022-10-09T16:07:56.173Z,68.96
2022-10-09T16:10:49.011Z,69.94
2022-10-09T16:13:39.725Z,70.35
2022-10-09T16:16:27.649Z,70.67
2022-10-09T16:19:13.797Z,71.99
2022-10-09T16:21:59.441Z,73.36
2022-10-09T16:24:45.477Z,74.27
2022-10-09T16:27:31.312Z,74.55
2022-10-09T16:30:17.316Z,74.13
2022-10-09T16:33:08.049Z,75.47
2022-10-09T16:36:08.524Z,77.59
2022-10-09T16:38:55.599Z,78.30
2022-10-09T16:41:42.596Z,78.05
2022-10-09T16:44:31.535Z,80.75
2022-10-09T16:47:17.825Z,84.28
2022-10-09T16:50:03.659Z,88.50
2022-10-09T16:52:55.678Z,88.66
2022-10-09T16:55:41.175Z,88.23
2022-10-09T16:58:27.189Z,89.91
2022-10-09T17:01:15.499Z,88.03
2022-10-09T17:04:00.854Z,88.31
2022-10-09T17:06:46.769Z,89.21
2022-10-09T17:09:33.451Z,91.49
2022-10-09T17:12:19.586Z,94.10
2022-10-09T17:15:06.391Z,93.79
2022-10-09T17:17:52.175Z,90.24
2022-10-09T17:20:39.322Z,89.95
2022-10-09T17:23:25.010Z,88.86
2022-10-09T17:26:16.872Z,89.20
2022-10-09T17:29:04.884Z,88.88
2022-10-09T17:31:52.364Z,88.63
2022-10-09T17:34:43.037Z,90.46
2022-10-09T17:37:29.189Z,90.84
2022-10-09T17:40:14.866Z,90.53
2022-10-09T17:43:00.326Z,90.80
2022-10-09T17:45:48.465Z,91.79
2022-10-09T17:48:35.815Z,92.11
2022-10-09T17:51:25.960Z,92.01
2022-10-09T17:54:16.664Z,93.02
2022-10-09T17:57:05.128Z,92.78
2022-10-09T17:59:50.562Z,93.06
2022-10-09T18:02:35.943Z,93.15
2022-10-09T18:05:25.977Z,93.70
2022-10-09T18:08:12.964Z,94.03
2022-10-09T18:11:01.007Z,93.01
2022-10-09T18:13:47.045Z,93.00
2022-10-09T18:16:36.780Z,92.06
2022-10-09T18:19:26.023Z,92.50
2022-10-09T18:22:11.531Z,92.52
2022-10-09T18:25:00.114Z,93.40
2022-10-09T18:27:45.710Z,94.06
2022-10-09T18:30:31.425Z,93.39
2022-10-09T18:33:17.297Z,92.13
2022-10-09T18:36:08.869Z,92.54
2022-10-09T18:38:58.703Z,92.93
2022-10-09T18:41:49.573Z,92.59
2022-10-09T18:44:40.249Z,91.59
2022-10-09T18:47:32.606Z,90.63
2022-10-09T18:50:18.537Z,90.42
2022-10-09T18:53:04.177Z,90.99
2022-10-09T18:55:50.204Z,92.50
2022-10-09T18:58:37.694Z,92.02
2022-10-09T19:01:23.337Z,92.03
2022-10-09T19:04:10.559Z,91.84
2022-10-09T19:06:56.496Z,91.44
2022-10-09T19:09:41.811Z,90.08
2022-10-09T19:12:27.358Z,90.62
2022-10-09T19:15:15.081Z,89.47
2022-10-09T19:18:01.479Z,90.19
2022-10-09T19:20:48.102Z,90.25
2022-10-09T19:23:33.902Z,89.54
2022-10-09T19:26:20.972Z,90.54
2022-10-09T19:29:08.299Z,89.78
2022-10-09T19:31:54.336Z,89.56
2022-10-09T19:34:39.732Z,90.32
2022-10-09T19:37:28.921Z,90.33
2022-10-09T19:40:15.657Z,90.41
2022-10-09T19:43:03.002Z,89.90
2022-10-09T19:45:50.648Z,90.25
2022-10-09T19:48:36.843Z,90.80
2022-10-09T19:51:26.186Z,91.39
2022-10-09T19:54:11.605Z,90.81
2022-10-09T19:56:57.667Z,90.62
2022-10-09T19:59:43.814Z,90.99
2022-10-09T20:02:29.242Z,91.75
2022-10-09T20:05:14.676Z,91.30
2022-10-09T20:08:00.625Z,91.07
2022-10-09T20:10:46.703Z,91.17
2022-10-09T20:13:34.430Z,89.56
2022-10-09T20:16:20.231Z,90.26
2022-10-09T20:19:06.118Z,89.02
2022-10-09T20:21:53.007Z,89.65
2022-10-09T20:24:38.615Z,89.19
2022-10-09T20:27:24.170Z,89.91
2022-10-09T20:30:10.204Z,90.29
2022-10-09T20:32:59.165Z,90.28
2022-10-09T20:35:44.940Z,89.72
2022-10-09T20:38:30.676Z,90.41
2022-10-09T20:41:16.977Z,90.09
2022-10-09T20:44:02.848Z,91.28
2022-10-09T20:46:48.715Z,91.79
2022-10-09T20:49:34.315Z,91.08
2022-10-09T20:52:19.682Z,91.14
2022-10-09T20:55:05.651Z,90.27
2022-10-09T20:57:54.822Z,89.53
2022-10-09T21:00:44.101Z,88.76
2022-10-09T21:03:29.967Z,89.29
2022-10-09T21:06:18.029Z,89.27
2022-10-09T21:09:04.626Z,89.56
2022-10-09T21:11:53.238Z,90.85
2022-10-09T21:14:39.045Z,92.42
2022-10-09T21:17:24.452Z,92.38
2022-10-09T21:20:09.901Z,91.90
2022-10-09T21:22:55.510Z,92.67
2022-10-09T21:25:52.166Z,93.61
2022-10-09T21:28:37.750Z,92.76
2022-10-09T21:31:26.233Z,92.38
2022-10-09T21:34:11.573Z,92.14
2022-10-09T21:40:03.902Z,93.67
2022-10-09T21:42:49.974Z,93.01
2022-10-09T21:45:35.921Z,93.78
2022-10-09T21:48:21.729Z,94.96
2022-10-09T21:51:07.874Z,95.12
2022-10-09T21:53:54.600Z,94.52
2022-10-09T21:56:40.160Z,96.44
2022-10-09T21:59:25.593Z,94.62
2022-10-09T22:02:11.021Z,95.65
2022-10-09T22:04:57.218Z,95.84
2022-10-09T22:07:42.826Z,96.12
2022-10-09T22:10:28.488Z,96.40
2022-10-09T22:13:14.078Z,96.54
2022-10-09T22:15:59.585Z,97.13
2022-10-09T22:18:45.606Z,96.03
2022-10-09T22:21:31.408Z,96.00
2022-10-09T22:24:16.840Z,95.22
2022-10-09T22:27:02.241Z,95.25
2022-10-09T22:29:47.927Z,96.94
2022-10-09T22:32:33.529Z,96.94
2022-10-09T22:35:19.244Z,96.98
2022-10-09T22:38:04.718Z,97.12
2022-10-09T22:40:50.210Z,97.59
2022-10-09T22:43:36.564Z,97.23
2022-10-09T22:46:31.242Z,97.39
2022-10-09T22:49:17.197Z,97.46
2022-10-09T22:52:03.753Z,98.08
2022-10-09T22:54:49.181Z,98.50
2022-10-09T22:57:34.859Z,97.79
2022-10-09T23:00:20.200Z,98.78
2022-10-09T23:03:05.573Z,98.67
2022-10-09T23:05:50.853Z,98.61
2022-10-09T23:08:41.065Z,99.03
2022-10-09T23:11:29.576Z,99.56
2022-10-09T23:14:15.288Z,99.67
2022-10-09T23:17:00.827Z,100.00
2022-10-09T23:19:46.488Z,100.00
2022-10-09T23:22:32.311Z,100.00
2022-10-09T23:25:17.987Z,100.00
2022-10-09T23:28:03.304Z,100.00
2022-10-09T23:30:49.103Z,100.00
2022-10-09T23:33:35.694Z,100.00
2022-10-09T23:36:23.336Z,100.00
2022-10-09T23:39:09.075Z,100.00
2022-10-09T23:41:54.466Z,100.00
2022-10-09T23:44:40.074Z,100.00
2022-10-09T23:47:25.388Z,100.00
2022-10-09T23:50:10.702Z,100.00
2022-10-09T23:52:56.090Z,100.00
2022-10-09T23:55:41.868Z,100.00
2022-10-09T23:58:27.414Z,100.00
